Aviation Digital Data Service (ADDS)

Output produced by METARs form (0253 UTC 22 April 2019)
found at http://www.aviationweather.gov/metar/data/
 
METAR text: ETNT 220220Z AUTO 09006KT 6000 // ////// 09/04 Q1016 ///
Conditions at: ETNT (WITTMUNDHAVEN(GA, DE) observed 0220 UTC 22 April 2019
Temperature: 9.0°C (48°F)
Dewpoint: 4.0°C (39°F) [RH = 71%]
Pressure (altimeter): 30.00 inches Hg (1016.0 mb)
Winds: from the E (90 degrees) at 7 MPH (6 knots; 3.1 m/s)
Visibility: 4 miles ( 6 km)
Ceiling: unknown
Clouds: missing
Weather: no significant weather observed at this time

METAR text: ETNT 220120Z AUTO 09007KT 7000 // ////// 10/04 Q1016 ///
Conditions at: ETNT (WITTMUNDHAVEN(GA, DE) observed 0120 UTC 22 April 2019
Temperature: 10.0°C (50°F)
Dewpoint: 4.0°C (39°F) [RH = 66%]
Pressure (altimeter): 30.00 inches Hg (1016.0 mb)
Winds: from the E (90 degrees) at 8 MPH (7 knots; 3.6 m/s)
Visibility: 4 miles ( 7 km)
Ceiling: unknown
Clouds: missing
Weather: no significant weather observed at this time

METAR text: ETNT 220020Z AUTO 10007KT 7000 // ////// 10/04 Q1017 ///
Conditions at: ETNT (WITTMUNDHAVEN(GA, DE) observed 0020 UTC 22 April 2019
Temperature: 10.0°C (50°F)
Dewpoint: 4.0°C (39°F) [RH = 66%]
Pressure (altimeter): 30.03 inches Hg (1017.0 mb)
Winds: from the E (100 degrees) at 8 MPH (7 knots; 3.6 m/s)
Visibility: 4 miles ( 7 km)
Ceiling: unknown
Clouds: missing
Weather: no significant weather observed at this time

METAR text: ETNT 212320Z AUTO 09008KT 7000 // ////// 10/04 Q1017 ///
Conditions at: ETNT (WITTMUNDHAVEN(GA, DE) observed 2320 UTC 21 April 2019
Temperature: 10.0°C (50°F)
Dewpoint: 4.0°C (39°F) [RH = 66%]
Pressure (altimeter): 30.03 inches Hg (1017.0 mb)
Winds: from the E (90 degrees) at 9 MPH (8 knots; 4.1 m/s)
Visibility: 4 miles ( 7 km)
Ceiling: unknown
Clouds: missing
Weather: no significant weather observed at this time

METAR text: ETNT 212220Z AUTO 08008KT 7000 // ////// 12/05 Q1017 ///
Conditions at: ETNT (WITTMUNDHAVEN(GA, DE) observed 2220 UTC 21 April 2019
Temperature: 12.0°C (54°F)
Dewpoint: 5.0°C (41°F) [RH = 62%]
Pressure (altimeter): 30.03 inches Hg (1017.0 mb)
Winds: from the E (80 degrees) at 9 MPH (8 knots; 4.1 m/s)
Visibility: 4 miles ( 7 km)
Ceiling: unknown
Clouds: missing
Weather: no significant weather observed at this time

METAR text: ETNT 212120Z AUTO 07005KT 6000 // ////// 12/06 Q1018 ///
Conditions at: ETNT (WITTMUNDHAVEN(GA, DE) observed 2120 UTC 21 April 2019
Temperature: 12.0°C (54°F)
Dewpoint: 6.0°C (43°F) [RH = 67%]
Pressure (altimeter): 30.06 inches Hg (1018.0 mb)
Winds: from the ENE (70 degrees) at 6 MPH (5 knots; 2.6 m/s)
Visibility: 4 miles ( 6 km)
Ceiling: unknown
Clouds: missing
Weather: no significant weather observed at this time

METAR text: ETNT 212020Z AUTO 07008KT 8000 // ////// 13/05 Q1018 ///
Conditions at: ETNT (WITTMUNDHAVEN(GA, DE) observed 2020 UTC 21 April 2019
Temperature: 13.0°C (55°F)
Dewpoint: 5.0°C (41°F) [RH = 58%]
Pressure (altimeter): 30.06 inches Hg (1018.0 mb)
Winds: from the ENE (70 degrees) at 9 MPH (8 knots; 4.1 m/s)
Visibility: 5 miles ( 8 km)
Ceiling: unknown
Clouds: missing
Weather: no significant weather observed at this time

METAR text: ETNT 211920Z AUTO 05006KT 8000 // ////// 13/04 Q1018 ///
Conditions at: ETNT (WITTMUNDHAVEN(GA, DE) observed 1920 UTC 21 April 2019
Temperature: 13.0°C (55°F)
Dewpoint: 4.0°C (39°F) [RH = 54%]
Pressure (altimeter): 30.06 inches Hg (1018.0 mb)
Winds: from the NE (50 degrees) at 7 MPH (6 knots; 3.1 m/s)
Visibility: 5 miles ( 8 km)
Ceiling: unknown
Clouds: missing
Weather: no significant weather observed at this time

METAR text: ETNT 211820Z AUTO 06009KT 9000 // ////// 15/03 Q1018 ///
Conditions at: ETNT (WITTMUNDHAVEN(GA, DE) observed 1820 UTC 21 April 2019
Temperature: 15.0°C (59°F)
Dewpoint: 3.0°C (37°F) [RH = 44%]
Pressure (altimeter): 30.06 inches Hg (1018.0 mb)
Winds: from the ENE (60 degrees) at 10 MPH (9 knots; 4.6 m/s)
Visibility: 6 miles ( 9 km)
Ceiling: unknown
Clouds: missing
Weather: no significant weather observed at this time

METAR text: ETNT 211720Z AUTO 07009KT 9999 // ////// 17/04 Q1019 ///
Conditions at: ETNT (WITTMUNDHAVEN(GA, DE) observed 1720 UTC 21 April 2019
Temperature: 17.0°C (63°F)
Dewpoint: 4.0°C (39°F) [RH = 42%]
Pressure (altimeter): 30.09 inches Hg (1019.0 mb)
Winds: from the ENE (70 degrees) at 10 MPH (9 knots; 4.6 m/s)
Visibility: 6 or more miles (10+ km)
Ceiling: unknown
Clouds: missing
Weather: no significant weather observed at this time

METAR text: ETNT 211620Z AUTO 08012KT 9999 // ////// 19/04 Q1019 ///
Conditions at: ETNT (WITTMUNDHAVEN(GA, DE) observed 1620 UTC 21 April 2019
Temperature: 19.0°C (66°F)
Dewpoint: 4.0°C (39°F) [RH = 37%]
Pressure (altimeter): 30.09 inches Hg (1019.0 mb)
Winds: from the E (80 degrees) at 14 MPH (12 knots; 6.2 m/s)
Visibility: 6 or more miles (10+ km)
Ceiling: unknown
Clouds: missing
Weather: no significant weather observed at this time

METAR text: ETNT 211520Z AUTO 07011KT 9999 // ////// 19/04 Q1020 ///
Conditions at: ETNT (WITTMUNDHAVEN(GA, DE) observed 1520 UTC 21 April 2019
Temperature: 19.0°C (66°F)
Dewpoint: 4.0°C (39°F) [RH = 37%]
Pressure (altimeter): 30.12 inches Hg (1020.0 mb)
Winds: from the ENE (70 degrees) at 13 MPH (11 knots; 5.7 m/s)
Visibility: 6 or more miles (10+ km)
Ceiling: unknown
Clouds: missing
Weather: no significant weather observed at this time

METAR text: ETNT 211420Z AUTO 07010KT 9999 // ////// 20/05 Q1020 ///
Conditions at: ETNT (WITTMUNDHAVEN(GA, DE) observed 1420 UTC 21 April 2019
Temperature: 20.0°C (68°F)
Dewpoint: 5.0°C (41°F) [RH = 37%]
Pressure (altimeter): 30.12 inches Hg (1020.0 mb)
Winds: from the ENE (70 degrees) at 12 MPH (10 knots; 5.1 m/s)
Visibility: 6 or more miles (10+ km)
Ceiling: unknown
Clouds: missing
Weather: no significant weather observed at this time

METAR text: ETNT 211320Z AUTO 08008KT 9999 // ////// 20/06 Q1021 ///
Conditions at: ETNT (WITTMUNDHAVEN(GA, DE) observed 1320 UTC 21 April 2019
Temperature: 20.0°C (68°F)
Dewpoint: 6.0°C (43°F) [RH = 40%]
Pressure (altimeter): 30.15 inches Hg (1021.0 mb)
Winds: from the E (80 degrees) at 9 MPH (8 knots; 4.1 m/s)
Visibility: 6 or more miles (10+ km)
Ceiling: unknown
Clouds: missing
Weather: no significant weather observed at this time

METAR text: ETNT 211220Z AUTO 12008KT 9000 // ////// 20/03 Q1022 ///
Conditions at: ETNT (WITTMUNDHAVEN(GA, DE) observed 1220 UTC 21 April 2019
Temperature: 20.0°C (68°F)
Dewpoint: 3.0°C (37°F) [RH = 32%]
Pressure (altimeter): 30.18 inches Hg (1022.0 mb)
Winds: from the ESE (120 degrees) at 9 MPH (8 knots; 4.1 m/s)
Visibility: 6 miles ( 9 km)
Ceiling: unknown
Clouds: missing
Weather: no significant weather observed at this time

METAR text: ETNT 211120Z AUTO 11008KT 9999 // ////// 19/01 Q1022 ///
Conditions at: ETNT (WITTMUNDHAVEN(GA, DE) observed 1120 UTC 21 April 2019
Temperature: 19.0°C (66°F)
Dewpoint: 1.0°C (34°F) [RH = 30%]
Pressure (altimeter): 30.18 inches Hg (1022.0 mb)
Winds: from the ESE (110 degrees) at 9 MPH (8 knots; 4.1 m/s)
Visibility: 6 or more miles (10+ km)
Ceiling: unknown
Clouds: missing
Weather: no significant weather observed at this time

METAR text: ETNT 211020Z AUTO 09006KT 6000 // ////// 18/04 Q1023 ///
Conditions at: ETNT (WITTMUNDHAVEN(GA, DE) observed 1020 UTC 21 April 2019
Temperature: 18.0°C (64°F)
Dewpoint: 4.0°C (39°F) [RH = 39%]
Pressure (altimeter): 30.21 inches Hg (1023.0 mb)
Winds: from the E (90 degrees) at 7 MPH (6 knots; 3.1 m/s)
Visibility: 4 miles ( 6 km)
Ceiling: unknown
Clouds: missing
Weather: no significant weather observed at this time

METAR text: ETNT 210920Z AUTO 09006KT 7000 // ////// 16/04 Q1024 ///
Conditions at: ETNT (WITTMUNDHAVEN(GA, DE) observed 0920 UTC 21 April 2019
Temperature: 16.0°C (61°F)
Dewpoint: 4.0°C (39°F) [RH = 45%]
Pressure (altimeter): 30.24 inches Hg (1024.0 mb)
Winds: from the E (90 degrees) at 7 MPH (6 knots; 3.1 m/s)
Visibility: 4 miles ( 7 km)
Ceiling: unknown
Clouds: missing
Weather: no significant weather observed at this time

METAR text: ETNT 210820Z AUTO 09004KT 6000 // ////// 14/04 Q1024 ///
Conditions at: ETNT (WITTMUNDHAVEN(GA, DE) observed 0820 UTC 21 April 2019
Temperature: 14.0°C (57°F)
Dewpoint: 4.0°C (39°F) [RH = 51%]
Pressure (altimeter): 30.24 inches Hg (1024.0 mb)
Winds: from the E (90 degrees) at 5 MPH (4 knots; 2.1 m/s)
Visibility: 4 miles ( 6 km)
Ceiling: unknown
Clouds: missing
Weather: no significant weather observed at this time

METAR text: ETNT 210720Z AUTO 10005KT 6000 // ////// 11/04 Q1025 ///
Conditions at: ETNT (WITTMUNDHAVEN(GA, DE) observed 0720 UTC 21 April 2019
Temperature: 11.0°C (52°F)
Dewpoint: 4.0°C (39°F) [RH = 62%]
Pressure (altimeter): 30.27 inches Hg (1025.0 mb)
Winds: from the E (100 degrees) at 6 MPH (5 knots; 2.6 m/s)
Visibility: 4 miles ( 6 km)
Ceiling: unknown
Clouds: missing
Weather: no significant weather observed at this time

METAR text: ETNT 210620Z AUTO 09006KT 5000 // ////// 08/04 Q1025 ///
Conditions at: ETNT (WITTMUNDHAVEN(GA, DE) observed 0620 UTC 21 April 2019
Temperature: 8.0°C (46°F)
Dewpoint: 4.0°C (39°F) [RH = 76%]
Pressure (altimeter): 30.27 inches Hg (1025.0 mb)
Winds: from the E (90 degrees) at 7 MPH (6 knots; 3.1 m/s)
Visibility: 3 miles ( 5 km)
Ceiling: unknown
Clouds: missing
Weather: no significant weather observed at this time

METAR text: ETNT 210520Z AUTO VRB01KT 3700 // ////// 03/02 Q1025 ///
Conditions at: ETNT (WITTMUNDHAVEN(GA, DE) observed 0520 UTC 21 April 2019
Temperature: 3.0°C (37°F)
Dewpoint: 2.0°C (36°F) [RH = 93%]
Pressure (altimeter): 30.27 inches Hg (1025.0 mb)
Winds: variable direction winds at 1 MPH (1 knots; 0.5 m/s)
Visibility: 2.30 miles (3.70 km)
Ceiling: unknown
Clouds: missing
Weather: no significant weather observed at this time

METAR text: ETNT 210420Z AUTO 03003KT 5000 // ////// 01/00 Q1026 ///
Conditions at: ETNT (WITTMUNDHAVEN(GA, DE) observed 0420 UTC 21 April 2019
Temperature: 1.0°C (34°F)
Dewpoint: 0.0°C (32°F) [RH = 93%]
Pressure (altimeter): 30.30 inches Hg (1026.0 mb)
Winds: from the NNE (30 degrees) at 3 MPH (3 knots; 1.5 m/s)
Visibility: 3 miles ( 5 km)
Ceiling: unknown
Clouds: missing
Weather: no significant weather observed at this time

METAR text: ETNT 210320Z AUTO 35001KT 1300 // ////// 02/01 Q1026 ///
Conditions at: ETNT (WITTMUNDHAVEN(GA, DE) observed 0320 UTC 21 April 2019
Temperature: 2.0°C (36°F)
Dewpoint: 1.0°C (34°F) [RH = 93%]
Pressure (altimeter): 30.30 inches Hg (1026.0 mb)
Winds: from the N (350 degrees) at 1 MPH (1 knots; 0.5 m/s)
Visibility: 0.81 miles (1.30 km)
Ceiling: unknown
Clouds: missing
Weather: no significant weather observed at this time

METAR text: ETNT 210220Z AUTO 02002KT 4600 // ////// 02/00 Q1027 ///
Conditions at: ETNT (WITTMUNDHAVEN(GA, DE) observed 0220 UTC 21 April 2019
Temperature: 2.0°C (36°F)
Dewpoint: 0.0°C (32°F) [RH = 87%]
Pressure (altimeter): 30.32 inches Hg (1027.0 mb)
Winds: from the NNE (20 degrees) at 2 MPH (2 knots; 1.0 m/s)
Visibility: 2.86 miles (4.60 km)
Ceiling: unknown
Clouds: missing
Weather: no significant weather observed at this time

METAR text: ETNT 210120Z AUTO 05002KT 5000 // ////// 02/00 Q1027 ///
Conditions at: ETNT (WITTMUNDHAVEN(GA, DE) observed 0120 UTC 21 April 2019
Temperature: 2.0°C (36°F)
Dewpoint: 0.0°C (32°F) [RH = 87%]
Pressure (altimeter): 30.32 inches Hg (1027.0 mb)
Winds: from the NE (50 degrees) at 2 MPH (2 knots; 1.0 m/s)
Visibility: 3 miles ( 5 km)
Ceiling: unknown
Clouds: missing
Weather: no significant weather observed at this time

METAR text: ETNT 210020Z AUTO 06003KT 5000 // ////// 04/01 Q1028 ///
Conditions at: ETNT (WITTMUNDHAVEN(GA, DE) observed 0020 UTC 21 April 2019
Temperature: 4.0°C (39°F)
Dewpoint: 1.0°C (34°F) [RH = 81%]
Pressure (altimeter): 30.35 inches Hg (1028.0 mb)
Winds: from the ENE (60 degrees) at 3 MPH (3 knots; 1.5 m/s)
Visibility: 3 miles ( 5 km)
Ceiling: unknown
Clouds: missing
Weather: no significant weather observed at this time

METAR text: ETNT 202320Z AUTO 03004KT 6000 // ////// 04/01 Q1028 ///
Conditions at: ETNT (WITTMUNDHAVEN(GA, DE) observed 2320 UTC 20 April 2019
Temperature: 4.0°C (39°F)
Dewpoint: 1.0°C (34°F) [RH = 81%]
Pressure (altimeter): 30.35 inches Hg (1028.0 mb)
Winds: from the NNE (30 degrees) at 5 MPH (4 knots; 2.1 m/s)
Visibility: 4 miles ( 6 km)
Ceiling: unknown
Clouds: missing
Weather: no significant weather observed at this time

METAR text: ETNT 202220Z AUTO 03004KT 6000 // ////// 07/02 Q1029 ///
Conditions at: ETNT (WITTMUNDHAVEN(GA, DE) observed 2220 UTC 20 April 2019
Temperature: 7.0°C (45°F)
Dewpoint: 2.0°C (36°F) [RH = 70%]
Pressure (altimeter): 30.38 inches Hg (1029.0 mb)
Winds: from the NNE (30 degrees) at 5 MPH (4 knots; 2.1 m/s)
Visibility: 4 miles ( 6 km)
Ceiling: unknown
Clouds: missing
Weather: no significant weather observed at this time

METAR text: ETNT 202120Z AUTO 03005KT 6000 // ////// 08/02 Q1029 ///
Conditions at: ETNT (WITTMUNDHAVEN(GA, DE) observed 2120 UTC 20 April 2019
Temperature: 8.0°C (46°F)
Dewpoint: 2.0°C (36°F) [RH = 66%]
Pressure (altimeter): 30.38 inches Hg (1029.0 mb)
Winds: from the NNE (30 degrees) at 6 MPH (5 knots; 2.6 m/s)
Visibility: 4 miles ( 6 km)
Ceiling: unknown
Clouds: missing
Weather: no significant weather observed at this time

METAR text: ETNT 202020Z AUTO 06005KT 4600 // ////// 09/03 Q1029 ///
Conditions at: ETNT (WITTMUNDHAVEN(GA, DE) observed 2020 UTC 20 April 2019
Temperature: 9.0°C (48°F)
Dewpoint: 3.0°C (37°F) [RH = 66%]
Pressure (altimeter): 30.38 inches Hg (1029.0 mb)
Winds: from the ENE (60 degrees) at 6 MPH (5 knots; 2.6 m/s)
Visibility: 2.86 miles (4.60 km)
Ceiling: unknown
Clouds: missing
Weather: no significant weather observed at this time

METAR text: ETNT 201920Z AUTO 05006KT 6000 // ////// 11/03 Q1029 ///
Conditions at: ETNT (WITTMUNDHAVEN(GA, DE) observed 1920 UTC 20 April 2019
Temperature: 11.0°C (52°F)
Dewpoint: 3.0°C (37°F) [RH = 58%]
Pressure (altimeter): 30.38 inches Hg (1029.0 mb)
Winds: from the NE (50 degrees) at 7 MPH (6 knots; 3.1 m/s)
Visibility: 4 miles ( 6 km)
Ceiling: unknown
Clouds: missing
Weather: no significant weather observed at this time

METAR text: ETNT 201820Z AUTO 03005KT 9000 // ////// 14/03 Q1030 ///
Conditions at: ETNT (WITTMUNDHAVEN(GA, DE) observed 1820 UTC 20 April 2019
Temperature: 14.0°C (57°F)
Dewpoint: 3.0°C (37°F) [RH = 47%]
Pressure (altimeter): 30.41 inches Hg (1030.0 mb)
Winds: from the NNE (30 degrees) at 6 MPH (5 knots; 2.6 m/s)
Visibility: 6 miles ( 9 km)
Ceiling: unknown
Clouds: missing
Weather: no significant weather observed at this time

METAR text: ETNT 201720Z AUTO 03008KT 9999 // ////// 16/02 Q1030 ///
Conditions at: ETNT (WITTMUNDHAVEN(GA, DE) observed 1720 UTC 20 April 2019
Temperature: 16.0°C (61°F)
Dewpoint: 2.0°C (36°F) [RH = 39%]
Pressure (altimeter): 30.41 inches Hg (1030.0 mb)
Winds: from the NNE (30 degrees) at 9 MPH (8 knots; 4.1 m/s)
Visibility: 6 or more miles (10+ km)
Ceiling: unknown
Clouds: missing
Weather: no significant weather observed at this time

METAR text: ETNT 201620Z AUTO 06011KT 9999 // ////// 18/01 Q1030 ///
Conditions at: ETNT (WITTMUNDHAVEN(GA, DE) observed 1620 UTC 20 April 2019
Temperature: 18.0°C (64°F)
Dewpoint: 1.0°C (34°F) [RH = 32%]
Pressure (altimeter): 30.41 inches Hg (1030.0 mb)
Winds: from the ENE (60 degrees) at 13 MPH (11 knots; 5.7 m/s)
Visibility: 6 or more miles (10+ km)
Ceiling: unknown
Clouds: missing
Weather: no significant weather observed at this time

METAR text: ETNT 201520Z AUTO 08011KT 9999 // ////// 19/01 Q1030 ///
Conditions at: ETNT (WITTMUNDHAVEN(GA, DE) observed 1520 UTC 20 April 2019
Temperature: 19.0°C (66°F)
Dewpoint: 1.0°C (34°F) [RH = 30%]
Pressure (altimeter): 30.41 inches Hg (1030.0 mb)
Winds: from the E (80 degrees) at 13 MPH (11 knots; 5.7 m/s)
Visibility: 6 or more miles (10+ km)
Ceiling: unknown
Clouds: missing
Weather: no significant weather observed at this time